sensor_id;sensor_type;location;lat;lon;timestamp;P1;durP1;ratioP1;P2;durP2;ratioP2
13408;SDS011;6775;49.574;11.170;2023-04-25T00:02:09;3.77;;;2.83;;
13408;SDS011;6775;49.574;11.170;2023-04-25T00:04:37;3.70;;;2.77;;
13408;SDS011;6775;49.574;11.170;2023-04-25T00:07:05;3.77;;;2.80;;
13408;SDS011;6775;49.574;11.170;2023-04-25T00:09:33;3.10;;;2.80;;
13408;SDS011;6775;49.574;11.170;2023-04-25T00:12:01;5.40;;;3.00;;
13408;SDS011;6775;49.574;11.170;2023-04-25T00:14:30;3.03;;;2.60;;
13408;SDS011;6775;49.574;11.170;2023-04-25T00:17:00;3.50;;;2.70;;
13408;SDS011;6775;49.574;11.170;2023-04-25T00:19:28;3.20;;;2.80;;
13408;SDS011;6775;49.574;11.170;2023-04-25T00:21:56;2.90;;;2.70;;
13408;SDS011;6775;49.574;11.170;2023-04-25T00:24:24;3.10;;;2.80;;
13408;SDS011;6775;49.574;11.170;2023-04-25T00:26:52;3.83;;;2.77;;
13408;SDS011;6775;49.574;11.170;2023-04-25T00:29:20;2.80;;;2.47;;
13408;SDS011;6775;49.574;11.170;2023-04-25T00:31:49;4.53;;;2.83;;
13408;SDS011;6775;49.574;11.170;2023-04-25T00:34:17;3.23;;;2.93;;
13408;SDS011;6775;49.574;11.170;2023-04-25T00:36:44;4.07;;;2.93;;
13408;SDS011;6775;49.574;11.170;2023-04-25T00:39:12;3.10;;;2.83;;
13408;SDS011;6775;49.574;11.170;2023-04-25T00:41:40;3.77;;;3.10;;
13408;SDS011;6775;49.574;11.170;2023-04-25T00:44:08;3.83;;;3.20;;
13408;SDS011;6775;49.574;11.170;2023-04-25T00:46:37;4.23;;;3.60;;
13408;SDS011;6775;49.574;11.170;2023-04-25T00:49:07;4.50;;;3.70;;
13408;SDS011;6775;49.574;11.170;2023-04-25T00:51:41;4.47;;;3.70;;
13408;SDS011;6775;49.574;11.170;2023-04-25T00:54:10;5.50;;;3.90;;
13408;SDS011;6775;49.574;11.170;2023-04-25T00:56:39;4.40;;;3.83;;
13408;SDS011;6775;49.574;11.170;2023-04-25T00:59:07;5.07;;;3.97;;
13408;SDS011;6775;49.574;11.170;2023-04-25T01:01:36;4.63;;;3.87;;
13408;SDS011;6775;49.574;11.170;2023-04-25T01:04:07;6.00;;;3.60;;
13408;SDS011;6775;49.574;11.170;2023-04-25T01:06:35;3.40;;;3.10;;
13408;SDS011;6775;49.574;11.170;2023-04-25T01:09:03;3.73;;;2.67;;
13408;SDS011;6775;49.574;11.170;2023-04-25T01:11:32;3.20;;;2.90;;
13408;SDS011;6775;49.574;11.170;2023-04-25T01:14:00;2.73;;;2.53;;
13408;SDS011;6775;49.574;11.170;2023-04-25T01:16:28;3.57;;;3.20;;
13408;SDS011;6775;49.574;11.170;2023-04-25T01:18:57;3.20;;;2.90;;
13408;SDS011;6775;49.574;11.170;2023-04-25T01:21:26;3.23;;;2.70;;
13408;SDS011;6775;49.574;11.170;2023-04-25T01:23:55;4.33;;;2.77;;
13408;SDS011;6775;49.574;11.170;2023-04-25T01:26:24;3.10;;;2.57;;
13408;SDS011;6775;49.574;11.170;2023-04-25T01:28:52;3.77;;;3.10;;
13408;SDS011;6775;49.574;11.170;2023-04-25T01:31:21;2.73;;;2.43;;
13408;SDS011;6775;49.574;11.170;2023-04-25T01:33:49;3.40;;;3.10;;
13408;SDS011;6775;49.574;11.170;2023-04-25T01:36:17;2.77;;;2.47;;
13408;SDS011;6775;49.574;11.170;2023-04-25T01:38:46;3.00;;;2.70;;
13408;SDS011;6775;49.574;11.170;2023-04-25T01:41:14;2.67;;;2.40;;
13408;SDS011;6775;49.574;11.170;2023-04-25T01:43:44;3.20;;;2.67;;
13408;SDS011;6775;49.574;11.170;2023-04-25T01:46:12;2.50;;;2.30;;
13408;SDS011;6775;49.574;11.170;2023-04-25T01:48:40;3.80;;;3.37;;
13408;SDS011;6775;49.574;11.170;2023-04-25T01:51:08;2.93;;;2.60;;
13408;SDS011;6775;49.574;11.170;2023-04-25T01:53:37;2.87;;;2.53;;
13408;SDS011;6775;49.574;11.170;2023-04-25T01:56:07;3.30;;;2.50;;
13408;SDS011;6775;49.574;11.170;2023-04-25T01:58:35;3.13;;;2.83;;
13408;SDS011;6775;49.574;11.170;2023-04-25T02:01:02;4.10;;;2.90;;
13408;SDS011;6775;49.574;11.170;2023-04-25T02:03:31;3.40;;;3.00;;
13408;SDS011;6775;49.574;11.170;2023-04-25T02:05:59;4.73;;;3.00;;
13408;SDS011;6775;49.574;11.170;2023-04-25T02:08:27;3.00;;;2.57;;
13408;SDS011;6775;49.574;11.170;2023-04-25T02:10:56;2.93;;;2.50;;
13408;SDS011;6775;49.574;11.170;2023-04-25T02:13:25;3.10;;;2.80;;
13408;SDS011;6775;49.574;11.170;2023-04-25T02:15:53;3.90;;;2.40;;
13408;SDS011;6775;49.574;11.170;2023-04-25T02:18:21;3.53;;;2.57;;
13408;SDS011;6775;49.574;11.170;2023-04-25T02:20:49;3.60;;;2.57;;
13408;SDS011;6775;49.574;11.170;2023-04-25T02:23:16;2.70;;;2.50;;
13408;SDS011;6775;49.574;11.170;2023-04-25T02:25:45;3.17;;;2.67;;
13408;SDS011;6775;49.574;11.170;2023-04-25T02:28:13;3.03;;;2.23;;
13408;SDS011;6775;49.574;11.170;2023-04-25T02:30:42;3.80;;;2.60;;
13408;SDS011;6775;49.574;11.170;2023-04-25T02:33:09;2.83;;;2.53;;
13408;SDS011;6775;49.574;11.170;2023-04-25T02:35:37;2.40;;;2.20;;
13408;SDS011;6775;49.574;11.170;2023-04-25T02:38:05;5.17;;;2.60;;
13408;SDS011;6775;49.574;11.170;2023-04-25T02:40:33;2.50;;;2.30;;
13408;SDS011;6775;49.574;11.170;2023-04-25T02:43:01;2.13;;;1.90;;
13408;SDS011;6775;49.574;11.170;2023-04-25T02:45:28;3.27;;;2.60;;
13408;SDS011;6775;49.574;11.170;2023-04-25T02:47:58;2.93;;;2.57;;
13408;SDS011;6775;49.574;11.170;2023-04-25T02:50:25;2.93;;;2.47;;
13408;SDS011;6775;49.574;11.170;2023-04-25T02:52:53;2.87;;;2.40;;
13408;SDS011;6775;49.574;11.170;2023-04-25T02:55:21;3.40;;;2.73;;
13408;SDS011;6775;49.574;11.170;2023-04-25T02:57:53;2.47;;;2.27;;
13408;SDS011;6775;49.574;11.170;2023-04-25T03:00:21;6.57;;;3.27;;
13408;SDS011;6775;49.574;11.170;2023-04-25T03:02:49;3.03;;;2.60;;
13408;SDS011;6775;49.574;11.170;2023-04-25T03:05:19;3.53;;;3.10;;
13408;SDS011;6775;49.574;11.170;2023-04-25T03:07:46;3.00;;;2.70;;
13408;SDS011;6775;49.574;11.170;2023-04-25T03:10:14;4.40;;;2.47;;
13408;SDS011;6775;49.574;11.170;2023-04-25T03:12:42;5.50;;;2.60;;
13408;SDS011;6775;49.574;11.170;2023-04-25T03:15:10;2.70;;;2.50;;
13408;SDS011;6775;49.574;11.170;2023-04-25T03:17:37;3.80;;;3.40;;
13408;SDS011;6775;49.574;11.170;2023-04-25T03:20:06;3.23;;;2.60;;
13408;SDS011;6775;49.574;11.170;2023-04-25T03:22:36;3.20;;;2.90;;
13408;SDS011;6775;49.574;11.170;2023-04-25T03:25:04;2.83;;;2.60;;
13408;SDS011;6775;49.574;11.170;2023-04-25T03:27:33;4.37;;;3.00;;
13408;SDS011;6775;49.574;11.170;2023-04-25T03:30:01;4.23;;;3.00;;
13408;SDS011;6775;49.574;11.170;2023-04-25T03:32:29;3.30;;;3.00;;
13408;SDS011;6775;49.574;11.170;2023-04-25T03:34:57;3.60;;;3.10;;
13408;SDS011;6775;49.574;11.170;2023-04-25T03:37:25;3.47;;;3.17;;
13408;SDS011;6775;49.574;11.170;2023-04-25T03:39:54;5.40;;;3.53;;
13408;SDS011;6775;49.574;11.170;2023-04-25T03:42:22;3.97;;;3.33;;
13408;SDS011;6775;49.574;11.170;2023-04-25T03:44:50;3.30;;;3.00;;
13408;SDS011;6775;49.574;11.170;2023-04-25T03:47:19;3.47;;;2.83;;
13408;SDS011;6775;49.574;11.170;2023-04-25T03:49:46;3.17;;;2.80;;
13408;SDS011;6775;49.574;11.170;2023-04-25T03:52:15;4.17;;;3.77;;
13408;SDS011;6775;49.574;11.170;2023-04-25T03:54:43;5.00;;;3.90;;
13408;SDS011;6775;49.574;11.170;2023-04-25T03:57:12;6.00;;;4.73;;
13408;SDS011;6775;49.574;11.170;2023-04-25T03:59:40;5.60;;;4.37;;
13408;SDS011;6775;49.574;11.170;2023-04-25T04:02:08;4.60;;;4.20;;
13408;SDS011;6775;49.574;11.170;2023-04-25T04:04:35;4.17;;;3.67;;
13408;SDS011;6775;49.574;11.170;2023-04-25T04:07:04;4.53;;;3.30;;
13408;SDS011;6775;49.574;11.170;2023-04-25T04:09:31;5.00;;;4.00;;
13408;SDS011;6775;49.574;11.170;2023-04-25T04:11:59;5.20;;;4.40;;
13408;SDS011;6775;49.574;11.170;2023-04-25T04:14:29;4.47;;;4.07;;
13408;SDS011;6775;49.574;11.170;2023-04-25T04:16:57;5.67;;;4.10;;
13408;SDS011;6775;49.574;11.170;2023-04-25T04:19:25;5.93;;;4.50;;
13408;SDS011;6775;49.574;11.170;2023-04-25T04:21:53;10.43;;;5.00;;
13408;SDS011;6775;49.574;11.170;2023-04-25T04:24:20;5.90;;;4.67;;
13408;SDS011;6775;49.574;11.170;2023-04-25T04:26:48;5.17;;;4.40;;
13408;SDS011;6775;49.574;11.170;2023-04-25T04:29:16;7.47;;;4.77;;
13408;SDS011;6775;49.574;11.170;2023-04-25T04:31:49;7.77;;;5.07;;
13408;SDS011;6775;49.574;11.170;2023-04-25T04:34:17;5.00;;;4.50;;
13408;SDS011;6775;49.574;11.170;2023-04-25T04:36:45;5.10;;;4.60;;
13408;SDS011;6775;49.574;11.170;2023-04-25T04:39:13;4.90;;;4.30;;
13408;SDS011;6775;49.574;11.170;2023-04-25T04:41:41;4.33;;;3.73;;
13408;SDS011;6775;49.574;11.170;2023-04-25T04:44:09;4.67;;;4.20;;
13408;SDS011;6775;49.574;11.170;2023-04-25T04:46:37;7.07;;;4.70;;
13408;SDS011;6775;49.574;11.170;2023-04-25T04:49:09;4.00;;;3.53;;
13408;SDS011;6775;49.574;11.170;2023-04-25T04:51:38;4.40;;;4.00;;
13408;SDS011;6775;49.574;11.170;2023-04-25T04:54:06;6.87;;;4.97;;
13408;SDS011;6775;49.574;11.170;2023-04-25T04:56:37;5.33;;;4.37;;
13408;SDS011;6775;49.574;11.170;2023-04-25T04:59:05;4.97;;;3.80;;
13408;SDS011;6775;49.574;11.170;2023-04-25T05:01:33;3.50;;;3.20;;
13408;SDS011;6775;49.574;11.170;2023-04-25T05:04:01;4.47;;;3.43;;
13408;SDS011;6775;49.574;11.170;2023-04-25T05:06:31;3.40;;;3.10;;
13408;SDS011;6775;49.574;11.170;2023-04-25T05:08:59;4.70;;;3.43;;
13408;SDS011;6775;49.574;11.170;2023-04-25T05:11:27;6.03;;;4.07;;
13408;SDS011;6775;49.574;11.170;2023-04-25T05:13:54;3.93;;;3.53;;
13408;SDS011;6775;49.574;11.170;2023-04-25T05:16:22;4.40;;;3.47;;
13408;SDS011;6775;49.574;11.170;2023-04-25T05:18:50;4.30;;;3.43;;
13408;SDS011;6775;49.574;11.170;2023-04-25T05:21:18;4.17;;;3.43;;
13408;SDS011;6775;49.574;11.170;2023-04-25T05:23:47;4.50;;;3.33;;
13408;SDS011;6775;49.574;11.170;2023-04-25T05:26:15;4.30;;;3.63;;
13408;SDS011;6775;49.574;11.170;2023-04-25T05:28:43;3.93;;;3.27;;
13408;SDS011;6775;49.574;11.170;2023-04-25T05:31:11;4.37;;;3.97;;
13408;SDS011;6775;49.574;11.170;2023-04-25T05:33:39;4.10;;;3.63;;
13408;SDS011;6775;49.574;11.170;2023-04-25T05:36:07;3.20;;;2.90;;
13408;SDS011;6775;49.574;11.170;2023-04-25T05:38:35;3.43;;;2.93;;
13408;SDS011;6775;49.574;11.170;2023-04-25T05:41:04;3.67;;;2.90;;
13408;SDS011;6775;49.574;11.170;2023-04-25T05:43:33;3.30;;;2.97;;
13408;SDS011;6775;49.574;11.170;2023-04-25T05:46:01;3.00;;;2.70;;
13408;SDS011;6775;49.574;11.170;2023-04-25T05:48:29;2.70;;;2.30;;
13408;SDS011;6775;49.574;11.170;2023-04-25T05:50:57;3.13;;;2.33;;
13408;SDS011;6775;49.574;11.170;2023-04-25T05:53:24;4.17;;;2.70;;
13408;SDS011;6775;49.574;11.170;2023-04-25T05:55:52;2.90;;;2.43;;
13408;SDS011;6775;49.574;11.170;2023-04-25T05:58:21;3.03;;;2.20;;
13408;SDS011;6775;49.574;11.170;2023-04-25T06:00:49;2.87;;;2.30;;
13408;SDS011;6775;49.574;11.170;2023-04-25T06:03:17;3.17;;;2.40;;
13408;SDS011;6775;49.574;11.170;2023-04-25T06:05:46;2.90;;;2.20;;
13408;SDS011;6775;49.574;11.170;2023-04-25T06:08:14;3.20;;;2.43;;
13408;SDS011;6775;49.574;11.170;2023-04-25T06:10:42;2.63;;;2.10;;
13408;SDS011;6775;49.574;11.170;2023-04-25T06:13:10;2.60;;;1.93;;
13408;SDS011;6775;49.574;11.170;2023-04-25T06:15:39;2.40;;;2.20;;
13408;SDS011;6775;49.574;11.170;2023-04-25T06:18:07;2.50;;;2.13;;
13408;SDS011;6775;49.574;11.170;2023-04-25T06:20:35;2.60;;;2.33;;
13408;SDS011;6775;49.574;11.170;2023-04-25T06:23:03;2.63;;;2.37;;
13408;SDS011;6775;49.574;11.170;2023-04-25T06:25:31;2.60;;;2.03;;
13408;SDS011;6775;49.574;11.170;2023-04-25T06:27:58;2.50;;;2.30;;
13408;SDS011;6775;49.574;11.170;2023-04-25T06:30:26;3.23;;;2.93;;
13408;SDS011;6775;49.574;11.170;2023-04-25T06:32:55;3.03;;;2.73;;
13408;SDS011;6775;49.574;11.170;2023-04-25T06:35:23;3.53;;;2.80;;
13408;SDS011;6775;49.574;11.170;2023-04-25T06:37:51;4.73;;;3.20;;
13408;SDS011;6775;49.574;11.170;2023-04-25T06:40:19;4.53;;;3.50;;
13408;SDS011;6775;49.574;11.170;2023-04-25T06:42:47;3.73;;;2.87;;
13408;SDS011;6775;49.574;11.170;2023-04-25T06:45:15;3.30;;;2.70;;
13408;SDS011;6775;49.574;11.170;2023-04-25T06:47:43;3.83;;;3.10;;
13408;SDS011;6775;49.574;11.170;2023-04-25T06:50:12;3.93;;;3.27;;
13408;SDS011;6775;49.574;11.170;2023-04-25T06:52:40;2.30;;;2.10;;
13408;SDS011;6775;49.574;11.170;2023-04-25T06:55:08;4.43;;;4.03;;
13408;SDS011;6775;49.574;11.170;2023-04-25T06:57:36;3.80;;;3.27;;
13408;SDS011;6775;49.574;11.170;2023-04-25T07:00:05;4.03;;;3.50;;
13408;SDS011;6775;49.574;11.170;2023-04-25T07:02:35;4.70;;;3.50;;
13408;SDS011;6775;49.574;11.170;2023-04-25T07:05:03;4.93;;;3.80;;
13408;SDS011;6775;49.574;11.170;2023-04-25T07:07:33;4.37;;;3.23;;
13408;SDS011;6775;49.574;11.170;2023-04-25T07:10:00;3.37;;;2.77;;
13408;SDS011;6775;49.574;11.170;2023-04-25T07:12:28;4.43;;;3.20;;
13408;SDS011;6775;49.574;11.170;2023-04-25T07:14:56;4.90;;;4.00;;
13408;SDS011;6775;49.574;11.170;2023-04-25T07:17:24;4.33;;;3.33;;
13408;SDS011;6775;49.574;11.170;2023-04-25T07:19:52;4.80;;;3.80;;
13408;SDS011;6775;49.574;11.170;2023-04-25T07:22:20;3.17;;;2.87;;
13408;SDS011;6775;49.574;11.170;2023-04-25T07:24:49;3.63;;;2.97;;
13408;SDS011;6775;49.574;11.170;2023-04-25T07:27:19;3.10;;;2.60;;
13408;SDS011;6775;49.574;11.170;2023-04-25T07:29:47;4.50;;;3.10;;
13408;SDS011;6775;49.574;11.170;2023-04-25T07:32:14;4.43;;;3.20;;
13408;SDS011;6775;49.574;11.170;2023-04-25T07:34:42;3.53;;;2.70;;
13408;SDS011;6775;49.574;11.170;2023-04-25T07:37:10;3.10;;;2.80;;
13408;SDS011;6775;49.574;11.170;2023-04-25T07:39:38;3.33;;;2.90;;
13408;SDS011;6775;49.574;11.170;2023-04-25T07:42:07;5.10;;;2.70;;
13408;SDS011;6775;49.574;11.170;2023-04-25T07:44:35;3.20;;;2.70;;
13408;SDS011;6775;49.574;11.170;2023-04-25T07:47:04;2.73;;;2.47;;
13408;SDS011;6775;49.574;11.170;2023-04-25T07:49:34;2.97;;;2.33;;
13408;SDS011;6775;49.574;11.170;2023-04-25T07:52:02;2.53;;;2.33;;
13408;SDS011;6775;49.574;11.170;2023-04-25T07:54:32;2.97;;;2.10;;
13408;SDS011;6775;49.574;11.170;2023-04-25T07:57:00;3.23;;;2.33;;
13408;SDS011;6775;49.574;11.170;2023-04-25T07:59:29;2.30;;;2.10;;
13408;SDS011;6775;49.574;11.170;2023-04-25T08:01:57;2.30;;;1.90;;
13408;SDS011;6775;49.574;11.170;2023-04-25T08:04:25;2.50;;;1.90;;
13408;SDS011;6775;49.574;11.170;2023-04-25T08:06:54;2.87;;;2.07;;
13408;SDS011;6775;49.574;11.170;2023-04-25T08:09:22;2.90;;;2.50;;
13408;SDS011;6775;49.574;11.170;2023-04-25T08:11:50;3.00;;;2.57;;
13408;SDS011;6775;49.574;11.170;2023-04-25T08:14:17;3.70;;;2.77;;
13408;SDS011;6775;49.574;11.170;2023-04-25T08:16:47;2.77;;;2.37;;
13408;SDS011;6775;49.574;11.170;2023-04-25T08:19:15;3.10;;;2.80;;
13408;SDS011;6775;49.574;11.170;2023-04-25T08:21:42;3.07;;;2.73;;
13408;SDS011;6775;49.574;11.170;2023-04-25T08:24:10;3.80;;;3.20;;
13408;SDS011;6775;49.574;11.170;2023-04-25T08:26:38;2.90;;;2.27;;
13408;SDS011;6775;49.574;11.170;2023-04-25T08:29:07;2.83;;;2.40;;
13408;SDS011;6775;49.574;11.170;2023-04-25T08:31:35;3.43;;;2.30;;
13408;SDS011;6775;49.574;11.170;2023-04-25T08:34:04;5.57;;;2.67;;
13408;SDS011;6775;49.574;11.170;2023-04-25T08:36:32;2.30;;;2.10;;
13408;SDS011;6775;49.574;11.170;2023-04-25T08:39:05;3.10;;;2.70;;
13408;SDS011;6775;49.574;11.170;2023-04-25T08:41:33;3.47;;;2.83;;
13408;SDS011;6775;49.574;11.170;2023-04-25T08:44:03;3.20;;;2.60;;
13408;SDS011;6775;49.574;11.170;2023-04-25T08:46:32;2.93;;;2.63;;
13408;SDS011;6775;49.574;11.170;2023-04-25T08:49:01;4.00;;;3.13;;
13408;SDS011;6775;49.574;11.170;2023-04-25T08:51:31;3.57;;;2.70;;
13408;SDS011;6775;49.574;11.170;2023-04-25T08:54:01;3.63;;;2.50;;
13408;SDS011;6775;49.574;11.170;2023-04-25T08:56:56;3.03;;;2.57;;
13408;SDS011;6775;49.574;11.170;2023-04-25T08:59:25;2.93;;;2.43;;
13408;SDS011;6775;49.574;11.170;2023-04-25T09:01:54;2.97;;;2.70;;
13408;SDS011;6775;49.574;11.170;2023-04-25T09:04:22;2.50;;;2.30;;
13408;SDS011;6775;49.574;11.170;2023-04-25T09:06:51;2.43;;;2.23;;
13408;SDS011;6775;49.574;11.170;2023-04-25T09:09:19;2.80;;;2.60;;
13408;SDS011;6775;49.574;11.170;2023-04-25T09:11:47;2.43;;;2.23;;
13408;SDS011;6775;49.574;11.170;2023-04-25T09:14:16;2.87;;;2.67;;
13408;SDS011;6775;49.574;11.170;2023-04-25T09:16:59;3.30;;;2.60;;
13408;SDS011;6775;49.574;11.170;2023-04-25T09:19:29;3.47;;;2.57;;
13408;SDS011;6775;49.574;11.170;2023-04-25T09:22:07;3.27;;;2.93;;
13408;SDS011;6775;49.574;11.170;2023-04-25T09:24:36;3.67;;;3.00;;
13408;SDS011;6775;49.574;11.170;2023-04-25T09:27:05;2.50;;;2.30;;
13408;SDS011;6775;49.574;11.170;2023-04-25T09:29:34;2.70;;;2.50;;
13408;SDS011;6775;49.574;11.170;2023-04-25T09:32:13;3.90;;;3.13;;
13408;SDS011;6775;49.574;11.170;2023-04-25T09:34:44;3.57;;;2.90;;
13408;SDS011;6775;49.574;11.170;2023-04-25T09:37:17;3.17;;;2.70;;
13408;SDS011;6775;49.574;11.170;2023-04-25T09:39:47;2.60;;;2.30;;
13408;SDS011;6775;49.574;11.170;2023-04-25T09:42:15;2.90;;;2.10;;
13408;SDS011;6775;49.574;11.170;2023-04-25T09:44:44;2.27;;;2.07;;
13408;SDS011;6775;49.574;11.170;2023-04-25T09:47:13;2.50;;;2.10;;
13408;SDS011;6775;49.574;11.170;2023-04-25T09:49:42;2.27;;;2.07;;
13408;SDS011;6775;49.574;11.170;2023-04-25T09:52:13;2.53;;;2.13;;
13408;SDS011;6775;49.574;11.170;2023-04-25T09:54:44;2.13;;;1.93;;
13408;SDS011;6775;49.574;11.170;2023-04-25T09:57:12;2.07;;;1.87;;
13408;SDS011;6775;49.574;11.170;2023-04-25T09:59:43;2.67;;;2.20;;
13408;SDS011;6775;49.574;11.170;2023-04-25T10:02:12;2.13;;;1.80;;
13408;SDS011;6775;49.574;11.170;2023-04-25T10:04:42;1.73;;;1.63;;
13408;SDS011;6775;49.574;11.170;2023-04-25T10:07:14;3.10;;;2.23;;
13408;SDS011;6775;49.574;11.170;2023-04-25T10:09:46;1.73;;;1.60;;
13408;SDS011;6775;49.574;11.170;2023-04-25T10:12:17;2.10;;;1.90;;
13408;SDS011;6775;49.574;11.170;2023-04-25T10:14:45;1.90;;;1.70;;
13408;SDS011;6775;49.574;11.170;2023-04-25T10:17:13;1.97;;;1.70;;
13408;SDS011;6775;49.574;11.170;2023-04-25T10:19:41;1.67;;;1.30;;
13408;SDS011;6775;49.574;11.170;2023-04-25T10:22:11;1.73;;;1.40;;
13408;SDS011;6775;49.574;11.170;2023-04-25T10:24:45;1.50;;;1.40;;
13408;SDS011;6775;49.574;11.170;2023-04-25T10:27:13;2.60;;;1.60;;
13408;SDS011;6775;49.574;11.170;2023-04-25T10:29:41;1.00;;;1.00;;
13408;SDS011;6775;49.574;11.170;2023-04-25T10:32:10;1.23;;;1.00;;
13408;SDS011;6775;49.574;11.170;2023-04-25T10:34:39;1.33;;;1.20;;
13408;SDS011;6775;49.574;11.170;2023-04-25T10:37:10;2.10;;;1.00;;
13408;SDS011;6775;49.574;11.170;2023-04-25T10:39:39;1.30;;;0.90;;
13408;SDS011;6775;49.574;11.170;2023-04-25T10:42:09;1.13;;;0.90;;
13408;SDS011;6775;49.574;11.170;2023-04-25T10:44:38;1.10;;;1.00;;
13408;SDS011;6775;49.574;11.170;2023-04-25T10:47:06;2.03;;;1.20;;
13408;SDS011;6775;49.574;11.170;2023-04-25T10:49:36;3.50;;;1.80;;
13408;SDS011;6775;49.574;11.170;2023-04-25T10:54:52;2.37;;;1.93;;
13408;SDS011;6775;49.574;11.170;2023-04-25T10:57:29;2.60;;;1.50;;
13408;SDS011;6775;49.574;11.170;2023-04-25T10:59:58;2.10;;;1.90;;
13408;SDS011;6775;49.574;11.170;2023-04-25T11:02:33;1.67;;;1.57;;
13408;SDS011;6775;49.574;11.170;2023-04-25T11:05:04;2.40;;;1.47;;
13408;SDS011;6775;49.574;11.170;2023-04-25T11:07:34;1.93;;;1.67;;
13408;SDS011;6775;49.574;11.170;2023-04-25T11:10:06;1.40;;;1.30;;
13408;SDS011;6775;49.574;11.170;2023-04-25T11:12:35;1.93;;;1.80;;
13408;SDS011;6775;49.574;11.170;2023-04-25T11:15:04;1.90;;;1.80;;
13408;SDS011;6775;49.574;11.170;2023-04-25T11:17:33;1.97;;;1.30;;
13408;SDS011;6775;49.574;11.170;2023-04-25T11:20:02;1.70;;;1.47;;
13408;SDS011;6775;49.574;11.170;2023-04-25T11:22:35;1.67;;;1.40;;
13408;SDS011;6775;49.574;11.170;2023-04-25T11:25:06;2.07;;;1.60;;
13408;SDS011;6775;49.574;11.170;2023-04-25T11:27:38;1.30;;;1.20;;
13408;SDS011;6775;49.574;11.170;2023-04-25T11:30:16;2.70;;;1.27;;
13408;SDS011;6775;49.574;11.170;2023-04-25T11:32:44;2.23;;;1.10;;
13408;SDS011;6775;49.574;11.170;2023-04-25T11:35:13;1.33;;;1.07;;
13408;SDS011;6775;49.574;11.170;2023-04-25T11:37:41;1.83;;;0.97;;
13408;SDS011;6775;49.574;11.170;2023-04-25T11:40:10;1.43;;;1.10;;
13408;SDS011;6775;49.574;11.170;2023-04-25T11:42:43;1.47;;;1.00;;
13408;SDS011;6775;49.574;11.170;2023-04-25T11:45:13;3.30;;;1.13;;
13408;SDS011;6775;49.574;11.170;2023-04-25T11:47:41;1.23;;;1.13;;
13408;SDS011;6775;49.574;11.170;2023-04-25T11:50:09;1.10;;;1.00;;
13408;SDS011;6775;49.574;11.170;2023-04-25T11:52:38;1.80;;;1.00;;
13408;SDS011;6775;49.574;11.170;2023-04-25T11:55:07;2.20;;;1.03;;
13408;SDS011;6775;49.574;11.170;2023-04-25T11:57:37;0.80;;;0.80;;
13408;SDS011;6775;49.574;11.170;2023-04-25T12:00:10;0.70;;;0.70;;
13408;SDS011;6775;49.574;11.170;2023-04-25T12:02:44;1.33;;;0.90;;
13408;SDS011;6775;49.574;11.170;2023-04-25T12:05:14;1.13;;;0.80;;
13408;SDS011;6775;49.574;11.170;2023-04-25T12:07:57;0.90;;;0.73;;
13408;SDS011;6775;49.574;11.170;2023-04-25T12:10:25;1.70;;;0.70;;
13408;SDS011;6775;49.574;11.170;2023-04-25T12:12:54;0.53;;;0.53;;
13408;SDS011;6775;49.574;11.170;2023-04-25T12:15:23;1.17;;;0.80;;
13408;SDS011;6775;49.574;11.170;2023-04-25T12:17:53;1.00;;;0.83;;
13408;SDS011;6775;49.574;11.170;2023-04-25T12:20:23;2.30;;;0.93;;
13408;SDS011;6775;49.574;11.170;2023-04-25T12:22:52;1.00;;;0.90;;
13408;SDS011;6775;49.574;11.170;2023-04-25T12:25:36;0.70;;;0.70;;
13408;SDS011;6775;49.574;11.170;2023-04-25T12:28:16;0.60;;;0.60;;
13408;SDS011;6775;49.574;11.170;2023-04-25T12:30:55;1.70;;;0.80;;
13408;SDS011;6775;49.574;11.170;2023-04-25T12:33:25;0.80;;;0.80;;
13408;SDS011;6775;49.574;11.170;2023-04-25T12:35:53;1.80;;;1.00;;
13408;SDS011;6775;49.574;11.170;2023-04-25T12:38:22;0.90;;;0.90;;
13408;SDS011;6775;49.574;11.170;2023-04-25T12:40:51;0.80;;;0.80;;
13408;SDS011;6775;49.574;11.170;2023-04-25T12:43:20;1.53;;;1.10;;
13408;SDS011;6775;49.574;11.170;2023-04-25T12:45:48;0.80;;;0.80;;
13408;SDS011;6775;49.574;11.170;2023-04-25T12:48:17;0.60;;;0.60;;
13408;SDS011;6775;49.574;11.170;2023-04-25T12:50:45;1.10;;;1.00;;
13408;SDS011;6775;49.574;11.170;2023-04-25T12:53:15;1.03;;;0.90;;
13408;SDS011;6775;49.574;11.170;2023-04-25T12:55:43;0.93;;;0.83;;
13408;SDS011;6775;49.574;11.170;2023-04-25T12:58:12;1.43;;;0.90;;
13408;SDS011;6775;49.574;11.170;2023-04-25T13:00:41;1.57;;;0.80;;
13408;SDS011;6775;49.574;11.170;2023-04-25T13:03:09;1.80;;;0.90;;
13408;SDS011;6775;49.574;11.170;2023-04-25T13:05:40;1.00;;;1.00;;
13408;SDS011;6775;49.574;11.170;2023-04-25T13:08:09;1.67;;;1.57;;
13408;SDS011;6775;49.574;11.170;2023-04-25T13:10:36;1.50;;;1.40;;
13408;SDS011;6775;49.574;11.170;2023-04-25T13:13:05;1.17;;;1.03;;
13408;SDS011;6775;49.574;11.170;2023-04-25T13:15:33;1.30;;;1.10;;
13408;SDS011;6775;49.574;11.170;2023-04-25T13:18:02;1.47;;;1.17;;
13408;SDS011;6775;49.574;11.170;2023-04-25T13:20:31;2.53;;;1.23;;
13408;SDS011;6775;49.574;11.170;2023-04-25T13:22:59;1.70;;;1.20;;
13408;SDS011;6775;49.574;11.170;2023-04-25T13:25:28;1.10;;;1.00;;
13408;SDS011;6775;49.574;11.170;2023-04-25T13:27:56;1.40;;;0.97;;
13408;SDS011;6775;49.574;11.170;2023-04-25T13:30:24;0.90;;;0.90;;
13408;SDS011;6775;49.574;11.170;2023-04-25T13:32:52;1.27;;;1.00;;
13408;SDS011;6775;49.574;11.170;2023-04-25T13:35:23;1.97;;;1.30;;
13408;SDS011;6775;49.574;11.170;2023-04-25T13:37:51;1.73;;;1.40;;
13408;SDS011;6775;49.574;11.170;2023-04-25T13:40:19;3.13;;;1.40;;
13408;SDS011;6775;49.574;11.170;2023-04-25T13:42:50;1.93;;;1.83;;
13408;SDS011;6775;49.574;11.170;2023-04-25T13:45:18;1.97;;;1.80;;
13408;SDS011;6775;49.574;11.170;2023-04-25T13:47:46;2.30;;;1.67;;
13408;SDS011;6775;49.574;11.170;2023-04-25T13:50:14;1.23;;;1.13;;
13408;SDS011;6775;49.574;11.170;2023-04-25T13:52:43;1.73;;;1.23;;
13408;SDS011;6775;49.574;11.170;2023-04-25T13:55:11;1.07;;;0.97;;
13408;SDS011;6775;49.574;11.170;2023-04-25T13:57:39;1.10;;;1.00;;
13408;SDS011;6775;49.574;11.170;2023-04-25T14:00:07;0.90;;;0.77;;
13408;SDS011;6775;49.574;11.170;2023-04-25T14:02:36;1.50;;;1.20;;
13408;SDS011;6775;49.574;11.170;2023-04-25T14:05:04;1.37;;;1.20;;
13408;SDS011;6775;49.574;11.170;2023-04-25T14:07:33;2.17;;;1.00;;
13408;SDS011;6775;49.574;11.170;2023-04-25T14:10:03;1.77;;;1.10;;
13408;SDS011;6775;49.574;11.170;2023-04-25T14:12:32;1.30;;;1.20;;
13408;SDS011;6775;49.574;11.170;2023-04-25T14:14:59;1.40;;;1.20;;
13408;SDS011;6775;49.574;11.170;2023-04-25T14:17:27;1.80;;;1.03;;
13408;SDS011;6775;49.574;11.170;2023-04-25T14:19:56;1.73;;;1.40;;
13408;SDS011;6775;49.574;11.170;2023-04-25T14:22:23;1.87;;;1.20;;
13408;SDS011;6775;49.574;11.170;2023-04-25T14:24:51;1.20;;;1.10;;
13408;SDS011;6775;49.574;11.170;2023-04-25T14:27:21;1.97;;;1.73;;
13408;SDS011;6775;49.574;11.170;2023-04-25T14:29:48;1.90;;;1.37;;
13408;SDS011;6775;49.574;11.170;2023-04-25T14:32:16;2.60;;;1.70;;
13408;SDS011;6775;49.574;11.170;2023-04-25T14:34:44;3.73;;;1.70;;
13408;SDS011;6775;49.574;11.170;2023-04-25T14:37:12;2.33;;;1.50;;
13408;SDS011;6775;49.574;11.170;2023-04-25T14:39:40;1.70;;;1.20;;
13408;SDS011;6775;49.574;11.170;2023-04-25T14:42:09;1.40;;;1.30;;
13408;SDS011;6775;49.574;11.170;2023-04-25T14:44:39;1.60;;;1.40;;
13408;SDS011;6775;49.574;11.170;2023-04-25T14:47:06;2.20;;;1.67;;
13408;SDS011;6775;49.574;11.170;2023-04-25T14:49:34;1.27;;;1.10;;
13408;SDS011;6775;49.574;11.170;2023-04-25T14:52:02;2.20;;;1.20;;
13408;SDS011;6775;49.574;11.170;2023-04-25T14:54:30;1.73;;;1.30;;
13408;SDS011;6775;49.574;11.170;2023-04-25T14:56:59;2.03;;;1.50;;
13408;SDS011;6775;49.574;11.170;2023-04-25T14:59:26;2.67;;;1.47;;
13408;SDS011;6775;49.574;11.170;2023-04-25T15:01:55;2.67;;;1.60;;